sensor_id;sensor_type;location;lat;lon;timestamp;pressure;altitude;pressure_sealevel;temperature;humidity
6680;BME280;3376;42.664;23.346;2023-07-22T00:01:28;94493.53;;;24.97;65.45
6680;BME280;3376;42.664;23.346;2023-07-22T00:03:55;94506.00;;;24.96;65.32
6680;BME280;3376;42.664;23.346;2023-07-22T00:06:22;94500.41;;;24.98;65.17
6680;BME280;3376;42.664;23.346;2023-07-22T00:08:49;94507.06;;;24.95;66.11
6680;BME280;3376;42.664;23.346;2023-07-22T00:11:18;94523.72;;;24.86;66.72
6680;BME280;3376;42.664;23.346;2023-07-22T00:13:45;94525.09;;;24.93;67.20
6680;BME280;3376;42.664;23.346;2023-07-22T00:16:12;94499.34;;;24.79;67.91
6680;BME280;3376;42.664;23.346;2023-07-22T00:18:38;94531.19;;;24.94;69.72
6680;BME280;3376;42.664;23.346;2023-07-22T00:21:05;94492.19;;;24.79;68.15
6680;BME280;3376;42.664;23.346;2023-07-22T00:23:34;94504.91;;;24.87;67.81
6680;BME280;3376;42.664;23.346;2023-07-22T00:26:01;94515.50;;;24.87;68.48
6680;BME280;3376;42.664;23.346;2023-07-22T00:28:29;94515.25;;;24.79;69.73
6680;BME280;3376;42.664;23.346;2023-07-22T00:30:56;94529.56;;;24.88;69.62
6680;BME280;3376;42.664;23.346;2023-07-22T00:33:23;94521.88;;;24.81;69.34
6680;BME280;3376;42.664;23.346;2023-07-22T00:35:50;94516.00;;;24.64;69.07
6680;BME280;3376;42.664;23.346;2023-07-22T00:38:17;94536.44;;;24.69;70.40
6680;BME280;3376;42.664;23.346;2023-07-22T00:40:44;94524.25;;;24.73;71.44
6680;BME280;3376;42.664;23.346;2023-07-22T00:43:11;94514.91;;;24.65;70.60
6680;BME280;3376;42.664;23.346;2023-07-22T00:45:39;94526.31;;;24.66;69.22
6680;BME280;3376;42.664;23.346;2023-07-22T00:48:06;94524.97;;;24.58;71.36
6680;BME280;3376;42.664;23.346;2023-07-22T00:50:34;94523.66;;;24.61;70.58
6680;BME280;3376;42.664;23.346;2023-07-22T00:53:01;94534.28;;;24.66;72.62
6680;BME280;3376;42.664;23.346;2023-07-22T00:55:28;94522.59;;;24.62;74.23
6680;BME280;3376;42.664;23.346;2023-07-22T00:57:55;94536.97;;;24.71;73.58
6680;BME280;3376;42.664;23.346;2023-07-22T01:00:22;94539.88;;;24.69;72.76
6680;BME280;3376;42.664;23.346;2023-07-22T01:02:50;94537.47;;;24.68;73.52
6680;BME280;3376;42.664;23.346;2023-07-22T01:05:17;94531.38;;;24.67;73.73
6680;BME280;3376;42.664;23.346;2023-07-22T01:07:44;94526.81;;;24.48;74.36
6680;BME280;3376;42.664;23.346;2023-07-22T01:10:13;94523.63;;;24.40;73.47
6680;BME280;3376;42.664;23.346;2023-07-22T01:12:40;94521.25;;;24.39;74.78
6680;BME280;3376;42.664;23.346;2023-07-22T01:15:07;94512.97;;;24.25;75.27
6680;BME280;3376;42.664;23.346;2023-07-22T01:17:36;94504.50;;;24.23;73.61
6680;BME280;3376;42.664;23.346;2023-07-22T01:20:05;94512.22;;;24.35;70.99
6680;BME280;3376;42.664;23.346;2023-07-22T01:22:33;94507.13;;;24.18;71.88
6680;BME280;3376;42.664;23.346;2023-07-22T01:25:01;94520.91;;;24.25;72.42
6680;BME280;3376;42.664;23.346;2023-07-22T01:27:28;94514.50;;;24.06;73.13
6680;BME280;3376;42.664;23.346;2023-07-22T01:29:55;94500.19;;;24.07;76.45
6680;BME280;3376;42.664;23.346;2023-07-22T01:32:22;94503.88;;;24.01;77.78
6680;BME280;3376;42.664;23.346;2023-07-22T01:34:49;94507.59;;;24.05;77.58
6680;BME280;3376;42.664;23.346;2023-07-22T01:37:16;94495.63;;;23.98;78.01
6680;BME280;3376;42.664;23.346;2023-07-22T01:39:42;94504.94;;;24.00;78.98
6680;BME280;3376;42.664;23.346;2023-07-22T01:42:11;94504.34;;;23.93;75.96
6680;BME280;3376;42.664;23.346;2023-07-22T01:44:39;94499.91;;;24.04;77.29
6680;BME280;3376;42.664;23.346;2023-07-22T01:47:06;94495.44;;;24.09;78.14
6680;BME280;3376;42.664;23.346;2023-07-22T01:49:33;94497.56;;;24.12;77.98
6680;BME280;3376;42.664;23.346;2023-07-22T01:52:00;94485.69;;;24.20;78.19
6680;BME280;3376;42.664;23.346;2023-07-22T01:54:27;94486.47;;;24.20;78.25
6680;BME280;3376;42.664;23.346;2023-07-22T01:56:54;94478.50;;;24.15;78.57
6680;BME280;3376;42.664;23.346;2023-07-22T01:59:22;94483.03;;;24.20;77.98
6680;BME280;3376;42.664;23.346;2023-07-22T02:01:49;94482.47;;;24.13;78.35
6680;BME280;3376;42.664;23.346;2023-07-22T02:04:16;94469.22;;;24.08;78.66
6680;BME280;3376;42.664;23.346;2023-07-22T02:06:43;94481.66;;;24.02;79.81
6680;BME280;3376;42.664;23.346;2023-07-22T02:09:10;94481.09;;;24.00;80.42
6680;BME280;3376;42.664;23.346;2023-07-22T02:11:39;94486.41;;;24.00;80.55
6680;BME280;3376;42.664;23.346;2023-07-22T02:14:05;94485.25;;;23.91;81.48
6680;BME280;3376;42.664;23.346;2023-07-22T02:16:35;94485.50;;;23.85;82.12
6680;BME280;3376;42.664;23.346;2023-07-22T02:19:02;94487.41;;;23.89;82.39
6680;BME280;3376;42.664;23.346;2023-07-22T02:21:29;94487.13;;;23.91;82.72
6680;BME280;3376;42.664;23.346;2023-07-22T02:23:56;94490.56;;;23.91;83.07
6680;BME280;3376;42.664;23.346;2023-07-22T02:26:23;94487.13;;;23.86;84.16
6680;BME280;3376;42.664;23.346;2023-07-22T02:28:49;94490.28;;;23.88;84.13
6680;BME280;3376;42.664;23.346;2023-07-22T02:31:16;94491.06;;;23.88;83.75
6680;BME280;3376;42.664;23.346;2023-07-22T02:33:44;94492.69;;;23.89;84.07
6680;BME280;3376;42.664;23.346;2023-07-22T02:36:12;94499.56;;;23.90;84.35
6680;BME280;3376;42.664;23.346;2023-07-22T02:38:39;94503.03;;;23.96;84.21
6680;BME280;3376;42.664;23.346;2023-07-22T02:41:05;94498.06;;;23.99;84.08
6680;BME280;3376;42.664;23.346;2023-07-22T02:43:33;94484.81;;;23.99;83.33
6680;BME280;3376;42.664;23.346;2023-07-22T02:46:01;94498.59;;;24.01;83.31
6680;BME280;3376;42.664;23.346;2023-07-22T02:48:29;94500.69;;;23.99;84.24
6680;BME280;3376;42.664;23.346;2023-07-22T02:51:03;94496.41;;;23.98;84.07
6680;BME280;3376;42.664;23.346;2023-07-22T02:53:30;94501.72;;;23.98;84.69
6680;BME280;3376;42.664;23.346;2023-07-22T02:55:57;94498.06;;;23.99;84.41
6680;BME280;3376;42.664;23.346;2023-07-22T02:58:24;94499.38;;;24.02;84.04
6680;BME280;3376;42.664;23.346;2023-07-22T03:00:50;94507.88;;;24.09;83.88
6680;BME280;3376;42.664;23.346;2023-07-22T03:03:17;94502.56;;;24.04;83.18
6680;BME280;3376;42.664;23.346;2023-07-22T03:05:44;94501.75;;;24.03;83.18
6680;BME280;3376;42.664;23.346;2023-07-22T03:08:14;94376.72;;;23.19;83.83
6680;BME280;3376;42.664;23.346;2023-07-22T03:10:40;94495.63;;;23.98;85.07
6680;BME280;3376;42.664;23.346;2023-07-22T03:13:09;94501.09;;;23.81;85.71
6680;BME280;3376;42.664;23.346;2023-07-22T03:15:36;94502.66;;;23.72;86.25
6680;BME280;3376;42.664;23.346;2023-07-22T03:18:02;94507.84;;;23.57;86.19
6680;BME280;3376;42.664;23.346;2023-07-22T03:20:30;94504.13;;;23.53;86.79
6680;BME280;3376;42.664;23.346;2023-07-22T03:22:57;94509.44;;;23.58;87.78
6680;BME280;3376;42.664;23.346;2023-07-22T03:25:25;94506.00;;;23.58;89.17
6680;BME280;3376;42.664;23.346;2023-07-22T03:27:52;94497.78;;;23.54;89.51
6680;BME280;3376;42.664;23.346;2023-07-22T03:30:21;94510.53;;;23.67;88.86
6680;BME280;3376;42.664;23.346;2023-07-22T03:32:48;94517.47;;;23.73;88.11
6680;BME280;3376;42.664;23.346;2023-07-22T03:35:16;94528.56;;;23.70;87.96
6680;BME280;3376;42.664;23.346;2023-07-22T03:37:43;94529.06;;;23.67;88.27
6680;BME280;3376;42.664;23.346;2023-07-22T03:40:10;94524.34;;;23.74;87.34
6680;BME280;3376;42.664;23.346;2023-07-22T03:42:41;94530.63;;;23.58;89.64
6680;BME280;3376;42.664;23.346;2023-07-22T03:45:08;94527.00;;;23.33;90.54
6680;BME280;3376;42.664;23.346;2023-07-22T03:47:35;94536.34;;;23.50;89.29
6680;BME280;3376;42.664;23.346;2023-07-22T03:50:02;94522.28;;;23.40;89.34
6680;BME280;3376;42.664;23.346;2023-07-22T03:52:29;94541.66;;;23.50;89.56
6680;BME280;3376;42.664;23.346;2023-07-22T03:54:56;94538.91;;;23.35;90.21
6680;BME280;3376;42.664;23.346;2023-07-22T03:57:25;94542.56;;;23.29;90.47
6680;BME280;3376;42.664;23.346;2023-07-22T03:59:53;94552.13;;;23.35;90.11
6680;BME280;3376;42.664;23.346;2023-07-22T04:02:20;94549.53;;;23.45;88.43
6680;BME280;3376;42.664;23.346;2023-07-22T04:04:47;94546.38;;;23.43;89.13
6680;BME280;3376;42.664;23.346;2023-07-22T04:07:14;94555.22;;;23.64;89.52
6680;BME280;3376;42.664;23.346;2023-07-22T04:09:40;94554.03;;;23.81;88.64
6680;BME280;3376;42.664;23.346;2023-07-22T04:12:08;94555.16;;;23.95;87.99
6680;BME280;3376;42.664;23.346;2023-07-22T04:14:34;94555.25;;;24.05;87.19
6680;BME280;3376;42.664;23.346;2023-07-22T04:17:03;94533.25;;;24.05;85.20
6680;BME280;3376;42.664;23.346;2023-07-22T04:19:30;94548.72;;;24.28;86.21
6680;BME280;3376;42.664;23.346;2023-07-22T04:21:57;94562.53;;;24.40;84.77
6680;BME280;3376;42.664;23.346;2023-07-22T04:24:24;94564.94;;;24.41;84.72
6680;BME280;3376;42.664;23.346;2023-07-22T04:26:51;94561.50;;;24.46;84.66
6680;BME280;3376;42.664;23.346;2023-07-22T04:29:18;94564.72;;;24.58;83.87
6680;BME280;3376;42.664;23.346;2023-07-22T04:31:45;94564.53;;;24.70;82.41
6680;BME280;3376;42.664;23.346;2023-07-22T04:34:13;94580.47;;;24.80;80.77
6680;BME280;3376;42.664;23.346;2023-07-22T04:36:40;94477.75;;;24.20;80.82
6680;BME280;3376;42.664;23.346;2023-07-22T04:39:07;94574.09;;;24.86;80.24
6680;BME280;3376;42.664;23.346;2023-07-22T04:41:34;94575.72;;;24.92;79.53
6680;BME280;3376;42.664;23.346;2023-07-22T04:44:00;94573.06;;;25.02;79.67
6680;BME280;3376;42.664;23.346;2023-07-22T04:46:27;94563.53;;;25.01;78.67
6680;BME280;3376;42.664;23.346;2023-07-22T04:48:54;94582.09;;;25.06;78.85
6680;BME280;3376;42.664;23.346;2023-07-22T04:51:22;94584.78;;;25.31;78.68
6680;BME280;3376;42.664;23.346;2023-07-22T04:53:49;94572.88;;;25.38;77.83
6680;BME280;3376;42.664;23.346;2023-07-22T04:56:15;94571.81;;;25.44;76.79
6680;BME280;3376;42.664;23.346;2023-07-22T04:58:42;94571.81;;;25.39;77.08
6680;BME280;3376;42.664;23.346;2023-07-22T05:01:10;94577.66;;;25.36;77.83
6680;BME280;3376;42.664;23.346;2023-07-22T05:03:37;94572.88;;;25.43;77.65
6680;BME280;3376;42.664;23.346;2023-07-22T05:06:05;94581.09;;;25.47;78.45
6680;BME280;3376;42.664;23.346;2023-07-22T05:08:33;94589.84;;;25.47;78.72
6680;BME280;3376;42.664;23.346;2023-07-22T05:11:01;94593.28;;;25.53;79.35
6680;BME280;3376;42.664;23.346;2023-07-22T05:13:27;94601.78;;;25.70;78.52
6680;BME280;3376;42.664;23.346;2023-07-22T05:15:54;94599.91;;;25.81;77.76
6680;BME280;3376;42.664;23.346;2023-07-22T05:18:21;94589.78;;;25.98;76.50
6680;BME280;3376;42.664;23.346;2023-07-22T05:20:48;94600.16;;;25.99;76.48
6680;BME280;3376;42.664;23.346;2023-07-22T05:23:15;94605.47;;;26.09;76.24
6680;BME280;3376;42.664;23.346;2023-07-22T05:25:43;94584.19;;;26.14;74.95
6680;BME280;3376;42.664;23.346;2023-07-22T05:28:10;94595.09;;;26.18;75.58
6680;BME280;3376;42.664;23.346;2023-07-22T05:30:37;94586.56;;;26.21;74.50
6680;BME280;3376;42.664;23.346;2023-07-22T05:33:03;94595.81;;;26.38;73.84
6680;BME280;3376;42.664;23.346;2023-07-22T05:35:30;94598.75;;;26.37;73.25
6680;BME280;3376;42.664;23.346;2023-07-22T05:37:57;94588.88;;;26.47;72.87
6680;BME280;3376;42.664;23.346;2023-07-22T05:40:23;94597.88;;;26.61;72.09
6680;BME280;3376;42.664;23.346;2023-07-22T05:42:52;94517.25;;;26.27;71.14
6680;BME280;3376;42.664;23.346;2023-07-22T05:45:18;94610.53;;;26.85;70.88
6680;BME280;3376;42.664;23.346;2023-07-22T05:47:45;94611.59;;;26.89;70.05
6680;BME280;3376;42.664;23.346;2023-07-22T05:50:12;94615.53;;;27.01;69.91
6680;BME280;3376;42.664;23.346;2023-07-22T05:52:39;94618.41;;;27.10;69.62
6680;BME280;3376;42.664;23.346;2023-07-22T05:55:06;94603.13;;;27.20;68.42
6680;BME280;3376;42.664;23.346;2023-07-22T05:57:33;94600.44;;;27.35;67.74
6680;BME280;3376;42.664;23.346;2023-07-22T06:00:01;94592.69;;;27.39;67.31
6680;BME280;3376;42.664;23.346;2023-07-22T06:02:28;94601.19;;;27.36;67.06
6680;BME280;3376;42.664;23.346;2023-07-22T06:04:55;94607.34;;;27.36;67.74
6680;BME280;3376;42.664;23.346;2023-07-22T06:07:21;94610.75;;;27.42;67.27
6680;BME280;3376;42.664;23.346;2023-07-22T06:09:48;94611.28;;;27.44;67.61
6680;BME280;3376;42.664;23.346;2023-07-22T06:12:15;94621.19;;;27.67;65.84
6680;BME280;3376;42.664;23.346;2023-07-22T06:14:42;94542.47;;;27.22;65.30
6680;BME280;3376;42.664;23.346;2023-07-22T06:17:10;94613.88;;;27.54;65.49
6680;BME280;3376;42.664;23.346;2023-07-22T06:19:37;94633.13;;;27.74;65.80
6680;BME280;3376;42.664;23.346;2023-07-22T06:22:04;94650.88;;;27.84;65.88
6680;BME280;3376;42.664;23.346;2023-07-22T06:24:31;94639.94;;;27.91;65.22
6680;BME280;3376;42.664;23.346;2023-07-22T06:26:57;94614.56;;;27.98;64.88
6680;BME280;3376;42.664;23.346;2023-07-22T06:29:24;94644.47;;;28.19;63.69
6680;BME280;3376;42.664;23.346;2023-07-22T06:31:51;94643.53;;;28.33;62.68
6680;BME280;3376;42.664;23.346;2023-07-22T06:34:19;94654.66;;;28.40;62.51
6680;BME280;3376;42.664;23.346;2023-07-22T06:36:46;94648.94;;;28.28;63.70
6680;BME280;3376;42.664;23.346;2023-07-22T06:39:13;94649.38;;;28.35;64.04
6680;BME280;3376;42.664;23.346;2023-07-22T06:41:39;94644.94;;;28.54;63.44
6680;BME280;3376;42.664;23.346;2023-07-22T06:44:06;94541.25;;;28.06;62.77
6680;BME280;3376;42.664;23.346;2023-07-22T06:46:33;94659.16;;;28.92;62.09
6680;BME280;3376;42.664;23.346;2023-07-22T06:48:59;94659.59;;;28.99;61.82
6680;BME280;3376;42.664;23.346;2023-07-22T06:51:28;94654.50;;;29.03;62.49
6680;BME280;3376;42.664;23.346;2023-07-22T06:53:54;94657.06;;;29.13;62.77
6680;BME280;3376;42.664;23.346;2023-07-22T06:56:21;94656.00;;;29.14;62.43
6680;BME280;3376;42.664;23.346;2023-07-22T06:58:48;94641.47;;;29.20;61.56
6680;BME280;3376;42.664;23.346;2023-07-22T07:01:16;94650.28;;;29.39;61.54
6680;BME280;3376;42.664;23.346;2023-07-22T07:03:43;94640.31;;;29.63;61.02
6680;BME280;3376;42.664;23.346;2023-07-22T07:06:11;94643.97;;;29.72;60.65
6680;BME280;3376;42.664;23.346;2023-07-22T07:08:39;94638.63;;;29.72;59.97
6680;BME280;3376;42.664;23.346;2023-07-22T07:11:06;94627.47;;;29.65;58.84
6680;BME280;3376;42.664;23.346;2023-07-22T07:13:33;94645.53;;;29.73;59.70
6680;BME280;3376;42.664;23.346;2023-07-22T07:16:21;94635.84;;;29.77;59.44
6680;BME280;3376;42.664;23.346;2023-07-22T07:18:48;94641.97;;;29.96;59.26
6680;BME280;3376;42.664;23.346;2023-07-22T07:21:16;94635.47;;;30.16;58.42
6680;BME280;3376;42.664;23.346;2023-07-22T07:23:44;94629.25;;;30.20;58.36
6680;BME280;3376;42.664;23.346;2023-07-22T07:26:11;94629.59;;;30.32;57.77
6680;BME280;3376;42.664;23.346;2023-07-22T07:28:38;94632.06;;;30.42;57.44
6680;BME280;3376;42.664;23.346;2023-07-22T07:31:05;94631.38;;;30.50;56.41
6680;BME280;3376;42.664;23.346;2023-07-22T07:33:32;94609.97;;;30.64;56.39
6680;BME280;3376;42.664;23.346;2023-07-22T07:35:59;94622.56;;;31.04;54.65
6680;BME280;3376;42.664;23.346;2023-07-22T07:38:26;94626.84;;;31.41;54.17
6680;BME280;3376;42.664;23.346;2023-07-22T07:40:57;94621.72;;;31.31;54.22
6680;BME280;3376;42.664;23.346;2023-07-22T07:43:24;94626.06;;;31.27;54.31
6680;BME280;3376;42.664;23.346;2023-07-22T07:45:51;94626.66;;;31.37;53.51
6680;BME280;3376;42.664;23.346;2023-07-22T07:48:37;94633.41;;;31.48;52.74
6680;BME280;3376;42.664;23.346;2023-07-22T07:51:04;94624.00;;;31.59;51.81
6680;BME280;3376;42.664;23.346;2023-07-22T07:53:31;94634.09;;;31.76;50.72
6680;BME280;3376;42.664;23.346;2023-07-22T07:55:59;94626.75;;;31.68;49.76
6680;BME280;3376;42.664;23.346;2023-07-22T07:58:26;94622.22;;;31.90;49.05
6680;BME280;3376;42.664;23.346;2023-07-22T08:00:53;94628.97;;;32.10;48.76
6680;BME280;3376;42.664;23.346;2023-07-22T08:03:19;94621.69;;;32.33;47.71
6680;BME280;3376;42.664;23.346;2023-07-22T08:05:46;94622.59;;;32.59;46.21
6680;BME280;3376;42.664;23.346;2023-07-22T08:08:13;94621.22;;;32.61;46.58
6680;BME280;3376;42.664;23.346;2023-07-22T08:10:39;94626.91;;;32.38;48.00
6680;BME280;3376;42.664;23.346;2023-07-22T08:13:09;94614.66;;;32.45;47.09
6680;BME280;3376;42.664;23.346;2023-07-22T08:15:36;94620.72;;;32.59;47.67
6680;BME280;3376;42.664;23.346;2023-07-22T08:18:03;94620.88;;;32.63;47.25
6680;BME280;3376;42.664;23.346;2023-07-22T08:20:30;94618.72;;;32.73;47.42
6680;BME280;3376;42.664;23.346;2023-07-22T08:22:57;94607.50;;;32.71;47.42
6680;BME280;3376;42.664;23.346;2023-07-22T08:25:23;94617.72;;;32.61;47.14
6680;BME280;3376;42.664;23.346;2023-07-22T08:27:50;94617.44;;;32.71;47.58
6680;BME280;3376;42.664;23.346;2023-07-22T08:30:18;94600.91;;;32.77;46.80
6680;BME280;3376;42.664;23.346;2023-07-22T08:32:45;94606.34;;;33.03;45.96
6680;BME280;3376;42.664;23.346;2023-07-22T08:35:12;94609.38;;;33.18;45.22
6680;BME280;3376;42.664;23.346;2023-07-22T08:37:38;94612.09;;;33.36;45.68
6680;BME280;3376;42.664;23.346;2023-07-22T08:40:08;94605.44;;;33.42;46.06
6680;BME280;3376;42.664;23.346;2023-07-22T08:42:36;94590.78;;;33.48;45.34
6680;BME280;3376;42.664;23.346;2023-07-22T08:45:06;94596.00;;;33.61;45.21
6680;BME280;3376;42.664;23.346;2023-07-22T08:47:38;94585.22;;;33.70;44.90
6680;BME280;3376;42.664;23.346;2023-07-22T08:50:06;94581.44;;;33.71;44.73
6680;BME280;3376;42.664;23.346;2023-07-22T08:52:34;94584.75;;;33.93;43.73
6680;BME280;3376;42.664;23.346;2023-07-22T08:55:01;94579.47;;;34.14;43.63
6680;BME280;3376;42.664;23.346;2023-07-22T08:57:29;94575.72;;;33.81;43.59
6680;BME280;3376;42.664;23.346;2023-07-22T08:59:57;94569.88;;;33.10;44.61
6680;BME280;3376;42.664;23.346;2023-07-22T09:02:24;94566.63;;;32.83;45.83
6680;BME280;3376;42.664;23.346;2023-07-22T09:04:52;94570.63;;;32.94;45.81
6680;BME280;3376;42.664;23.346;2023-07-22T09:07:19;94570.31;;;32.95;44.66
6680;BME280;3376;42.664;23.346;2023-07-22T09:09:46;94563.72;;;33.10;44.58
6680;BME280;3376;42.664;23.346;2023-07-22T09:12:14;94562.78;;;33.23;43.91
6680;BME280;3376;42.664;23.346;2023-07-22T09:14:42;94565.28;;;33.19;44.16
6680;BME280;3376;42.664;23.346;2023-07-22T09:17:09;94567.66;;;33.38;43.94
6680;BME280;3376;42.664;23.346;2023-07-22T09:19:36;94483.25;;;32.79;44.93
6680;BME280;3376;42.664;23.346;2023-07-22T09:22:04;94555.66;;;33.27;45.08
6680;BME280;3376;42.664;23.346;2023-07-22T09:24:31;94560.09;;;33.66;43.49
6680;BME280;3376;42.664;23.346;2023-07-22T09:26:58;94553.28;;;33.77;44.24
6680;BME280;3376;42.664;23.346;2023-07-22T09:29:38;94557.38;;;33.83;42.90
6680;BME280;3376;42.664;23.346;2023-07-22T09:32:06;94556.88;;;33.98;42.77
6680;BME280;3376;42.664;23.346;2023-07-22T09:34:33;94558.47;;;33.99;43.01
6680;BME280;3376;42.664;23.346;2023-07-22T09:37:00;94558.94;;;34.09;41.71
6680;BME280;3376;42.664;23.346;2023-07-22T09:39:28;94555.78;;;33.99;41.96
6680;BME280;3376;42.664;23.346;2023-07-22T09:41:55;94557.34;;;34.00;42.17
6680;BME280;3376;42.664;23.346;2023-07-22T09:44:29;94545.09;;;33.65;42.59
6680;BME280;3376;42.664;23.346;2023-07-22T09:46:56;94534.44;;;33.85;43.09
6680;BME280;3376;42.664;23.346;2023-07-22T09:49:22;94546.31;;;33.93;42.73
6680;BME280;3376;42.664;23.346;2023-07-22T09:51:50;94529.38;;;34.01;42.27
6680;BME280;3376;42.664;23.346;2023-07-22T09:54:19;94544.47;;;34.22;41.62
6680;BME280;3376;42.664;23.346;2023-07-22T09:56:50;94540.22;;;34.59;41.66
6680;BME280;3376;42.664;23.346;2023-07-22T09:59:18;94529.56;;;34.63;41.15
6680;BME280;3376;42.664;23.346;2023-07-22T10:01:46;94529.28;;;34.64;40.98
6680;BME280;3376;42.664;23.346;2023-07-22T10:04:16;94428.56;;;34.07;40.88
6680;BME280;3376;42.664;23.346;2023-07-22T10:06:43;94512.84;;;34.57;41.11
6680;BME280;3376;42.664;23.346;2023-07-22T10:09:11;94521.03;;;34.90;40.23
6680;BME280;3376;42.664;23.346;2023-07-22T10:11:39;94530.25;;;35.09;38.58
6680;BME280;3376;42.664;23.346;2023-07-22T10:14:07;94532.56;;;35.40;39.41
6680;BME280;3376;42.664;23.346;2023-07-22T10:16:34;94528.44;;;35.42;38.30
6680;BME280;3376;42.664;23.346;2023-07-22T10:19:02;94487.88;;;35.18;38.58
6680;BME280;3376;42.664;23.346;2023-07-22T10:21:32;94531.56;;;35.65;38.20
6680;BME280;3376;42.664;23.346;2023-07-22T10:24:02;94503.22;;;35.38;37.62
6680;BME280;3376;42.664;23.346;2023-07-22T10:26:29;94524.97;;;35.33;38.80
6680;BME280;3376;42.664;23.346;2023-07-22T10:28:58;94529.97;;;35.23;37.72
6680;BME280;3376;42.664;23.346;2023-07-22T10:31:30;94526.31;;;35.27;36.76
6680;BME280;3376;42.664;23.346;2023-07-22T10:33:57;94518.16;;;35.57;37.69
6680;BME280;3376;42.664;23.346;2023-07-22T10:36:28;94518.19;;;35.69;37.11
6680;BME280;3376;42.664;23.346;2023-07-22T10:38:56;94514.72;;;36.01;37.00
6680;BME280;3376;42.664;23.346;2023-07-22T10:41:23;94511.13;;;36.09;35.42
6680;BME280;3376;42.664;23.346;2023-07-22T10:43:55;94513.19;;;36.36;35.34
6680;BME280;3376;42.664;23.346;2023-07-22T10:46:32;94499.56;;;36.56;33.68
6680;BME280;3376;42.664;23.346;2023-07-22T10:49:13;94516.00;;;36.88;33.64
6680;BME280;3376;42.664;23.346;2023-07-22T10:51:41;94520.28;;;37.01;32.42
6680;BME280;3376;42.664;23.346;2023-07-22T10:54:14;94513.63;;;36.98;31.38
6680;BME280;3376;42.664;23.346;2023-07-22T10:56:43;94530.28;;;37.00;30.46
6680;BME280;3376;42.664;23.346;2023-07-22T10:59:11;94512.72;;;36.82;30.77
6680;BME280;3376;42.664;23.346;2023-07-22T11:01:40;94490.25;;;36.66;30.60
6680;BME280;3376;42.664;23.346;2023-07-22T11:04:21;94488.00;;;36.56;31.28
6680;BME280;3376;42.664;23.346;2023-07-22T11:06:56;94487.56;;;36.42;31.63
6680;BME280;3376;42.664;23.346;2023-07-22T11:09:39;94495.44;;;36.35;30.97
6680;BME280;3376;42.664;23.346;2023-07-22T11:12:10;94487.78;;;36.49;31.29
6680;BME280;3376;42.664;23.346;2023-07-22T11:14:41;94468.88;;;36.61;31.03
6680;BME280;3376;42.664;23.346;2023-07-22T11:17:12;94470.66;;;36.81;30.86
6680;BME280;3376;42.664;23.346;2023-07-22T11:19:39;94485.72;;;36.82;30.68
6680;BME280;3376;42.664;23.346;2023-07-22T11:22:07;94495.75;;;36.82;31.29
6680;BME280;3376;42.664;23.346;2023-07-22T11:24:36;94496.19;;;36.72;30.61
6680;BME280;3376;42.664;23.346;2023-07-22T11:27:04;94480.78;;;36.84;30.80
6680;BME280;3376;42.664;23.346;2023-07-22T11:29:31;94488.59;;;37.01;30.98
6680;BME280;3376;42.664;23.346;2023-07-22T11:31:58;94471.19;;;36.99;31.02
6680;BME280;3376;42.664;23.346;2023-07-22T11:34:26;94481.09;;;36.95;31.14
6680;BME280;3376;42.664;23.346;2023-07-22T11:36:54;94471.81;;;36.56;31.42
6680;BME280;3376;42.664;23.346;2023-07-22T11:39:23;94472.13;;;36.30;32.29
6680;BME280;3376;42.664;23.346;2023-07-22T11:41:51;94461.97;;;36.27;31.38
6680;BME280;3376;42.664;23.346;2023-07-22T11:44:20;94466.63;;;36.27;31.91
6680;BME280;3376;42.664;23.346;2023-07-22T11:46:48;94452.69;;;36.37;32.19
6680;BME280;3376;42.664;23.346;2023-07-22T11:49:23;94469.75;;;36.53;32.38
6680;BME280;3376;42.664;23.346;2023-07-22T11:51:54;94453.38;;;36.46;31.98
6680;BME280;3376;42.664;23.346;2023-07-22T11:54:21;94444.13;;;36.35;31.81
6680;BME280;3376;42.664;23.346;2023-07-22T11:56:48;94452.47;;;36.42;32.49
6680;BME280;3376;42.664;23.346;2023-07-22T11:59:15;94459.97;;;36.24;32.24
6680;BME280;3376;42.664;23.346;2023-07-22T12:01:44;94446.47;;;36.12;31.71
6680;BME280;3376;42.664;23.346;2023-07-22T12:04:12;94453.38;;;36.34;32.17
6680;BME280;3376;42.664;23.346;2023-07-22T12:06:39;94452.47;;;36.42;31.24
6680;BME280;3376;42.664;23.346;2023-07-22T12:09:09;94461.88;;;36.24;31.99
6680;BME280;3376;42.664;23.346;2023-07-22T12:11:37;94458.28;;;36.20;32.53
6680;BME280;3376;42.664;23.346;2023-07-22T12:14:08;94446.13;;;36.26;32.12
6680;BME280;3376;42.664;23.346;2023-07-22T12:16:36;94445.28;;;36.34;32.25
6680;BME280;3376;42.664;23.346;2023-07-22T12:19:04;94423.88;;;36.41;32.35
6680;BME280;3376;42.664;23.346;2023-07-22T12:21:31;94430.13;;;36.69;33.10
6680;BME280;3376;42.664;23.346;2023-07-22T12:23:58;94447.59;;;36.84;32.36
6680;BME280;3376;42.664;23.346;2023-07-22T12:26:27;94451.72;;;36.93;32.35
6680;BME280;3376;42.664;23.346;2023-07-22T12:28:54;94436.78;;;36.84;32.12
6680;BME280;3376;42.664;23.346;2023-07-22T12:31:21;94447.00;;;36.90;32.63
6680;BME280;3376;42.664;23.346;2023-07-22T12:33:47;94432.34;;;36.91;31.66
6680;BME280;3376;42.664;23.346;2023-07-22T12:36:14;94435.00;;;37.03;32.18
6680;BME280;3376;42.664;23.346;2023-07-22T12:38:41;94424.59;;;36.90;31.80
6680;BME280;3376;42.664;23.346;2023-07-22T12:41:08;94433.97;;;36.80;31.79
6680;BME280;3376;42.664;23.346;2023-07-22T12:43:36;94413.34;;;36.76;32.41
6680;BME280;3376;42.664;23.346;2023-07-22T12:46:02;94417.91;;;36.99;32.06
6680;BME280;3376;42.664;23.346;2023-07-22T12:48:29;94410.53;;;37.12;31.47
6680;BME280;3376;42.664;23.346;2023-07-22T12:50:56;94420.56;;;37.11;31.27
6680;BME280;3376;42.664;23.346;2023-07-22T12:53:24;94410.94;;;36.98;32.04
6680;BME280;3376;42.664;23.346;2023-07-22T12:55:51;94428.34;;;36.85;32.42
6680;BME280;3376;42.664;23.346;2023-07-22T12:58:17;94418.75;;;36.76;32.47
6680;BME280;3376;42.664;23.346;2023-07-22T13:00:46;94421.13;;;36.65;32.13
6680;BME280;3376;42.664;23.346;2023-07-22T13:03:12;94392.38;;;36.45;32.31
6680;BME280;3376;42.664;23.346;2023-07-22T13:05:39;94404.16;;;36.65;31.71
6680;BME280;3376;42.664;23.346;2023-07-22T13:08:06;94391.91;;;36.55;33.05
6680;BME280;3376;42.664;23.346;2023-07-22T13:10:35;94406.41;;;36.63;32.60
6680;BME280;3376;42.664;23.346;2023-07-22T13:13:04;94403.59;;;36.59;32.06